Terminal Aerodrome Forecast
Issued by NWS

Home | Current Version | Previous Version | Text Only | Print | Product List | Glossary Off
Versions: 1 2 3 4 5 6 7 8 9 10 11 12 13 14 15 16 17 18 19 20 21 22 23 24 25 26

233
FTUS43 KLOT 271510 AAB
TAFORD
TAF AMD
KORD 271510Z 2715/2818 26018G27KT P6SM BKN014 OVC020
     FM271900 25016G25KT P6SM BKN025
     FM272300 25010G15KT P6SM BKN035
     FM280400 22005KT P6SM BKN060
     FM281200 14006KT P6SM SCT060 BKN150=

USA.gov is the U.S. government's official web portal to all federal, state and local government web resources and services.